createdAt,value
2017-09-15T00:00:33.108Z,13.88
2017-09-15T00:01:33.050Z,13.81
2017-09-15T00:02:32.741Z,13.81
2017-09-15T00:03:32.698Z,13.95
2017-09-15T00:04:33.000Z,13.8
2017-09-15T00:05:32.357Z,13.81
2017-09-15T00:06:32.331Z,13.81
2017-09-15T00:07:32.650Z,13.8
2017-09-15T00:08:32.908Z,13.81
2017-09-15T00:09:32.578Z,13.71
2017-09-15T00:10:32.866Z,13.75
2017-09-15T00:11:33.129Z,13.72
2017-09-15T00:12:32.523Z,13.74
2017-09-15T00:13:32.817Z,13.74
2017-09-15T00:14:32.499Z,13.65
2017-09-15T00:15:32.810Z,13.66
2017-09-15T00:16:32.449Z,13.63
2017-09-15T00:17:32.747Z,13.63
2017-09-15T00:18:32.719Z,13.66
2017-09-15T00:19:32.450Z,13.6
2017-09-15T00:20:32.698Z,13.77
2017-09-15T00:21:32.351Z,13.74
2017-09-15T00:22:32.651Z,13.67
2017-09-15T00:23:32.626Z,13.77
2017-09-15T00:24:32.293Z,13.77
2017-09-15T00:25:31.979Z,13.75
2017-09-15T00:26:32.269Z,13.82
2017-09-15T00:27:32.270Z,13.56
2017-09-15T00:28:32.220Z,13.57
2017-09-15T00:29:32.520Z,13.63
2017-09-15T00:30:32.553Z,13.66
2017-09-15T00:31:32.169Z,13.63
2017-09-15T00:32:32.462Z,13.74
2017-09-15T00:33:32.123Z,13.75
2017-09-15T00:34:32.425Z,13.7
2017-09-15T00:35:32.398Z,13.74
2017-09-15T00:36:32.378Z,13.71
2017-09-15T00:37:32.060Z,13.75
2017-09-15T00:38:32.348Z,13.74
2017-09-15T00:39:32.309Z,13.65
2017-09-15T00:40:32.298Z,13.62
2017-09-15T00:41:32.289Z,13.53
2017-09-15T00:42:32.298Z,13.6
2017-09-15T00:43:31.616Z,13.55
2017-09-15T00:44:31.925Z,13.72
2017-09-15T00:45:32.209Z,13.67
2017-09-15T00:46:32.203Z,13.55
2017-09-15T00:47:32.160Z,13.62
2017-09-15T00:48:32.161Z,13.7
2017-09-15T00:49:31.829Z,13.53
2017-09-15T00:50:32.113Z,13.59
2017-09-15T00:51:32.099Z,13.55
2017-09-15T00:52:31.469Z,13.52
2017-09-15T00:53:32.051Z,13.57
2017-09-15T00:54:32.048Z,13.56
2017-09-15T00:55:31.402Z,13.44
2017-09-15T00:56:31.699Z,13.45
2017-09-15T00:57:31.671Z,13.38
2017-09-15T00:58:31.956Z,13.48
2017-09-15T00:59:31.629Z,13.26
2017-09-15T01:00:31.922Z,13.33
2017-09-15T01:01:31.591Z,13.41
2017-09-15T01:02:31.577Z,13.38
2017-09-15T01:03:31.868Z,13.41
2017-09-15T01:04:31.849Z,13.47
2017-09-15T01:05:31.200Z,13.55
2017-09-15T01:06:31.184Z,13.45
2017-09-15T01:07:31.801Z,13.53
2017-09-15T01:08:31.459Z,13.48
2017-09-15T01:09:31.750Z,13.45
2017-09-15T01:10:31.730Z,13.41
2017-09-15T01:11:31.398Z,13.53
2017-09-15T01:12:31.690Z,13.44
2017-09-15T01:13:31.675Z,13.45
2017-09-15T01:14:31.342Z,13.49
2017-09-15T01:15:31.638Z,13.52
2017-09-15T01:16:31.658Z,13.47
2017-09-15T01:17:31.279Z,13.41
2017-09-15T01:18:31.261Z,13.47
2017-09-15T01:19:31.570Z,13.41
2017-09-15T01:20:31.229Z,13.47
2017-09-15T01:21:31.220Z,13.38
2017-09-15T01:22:31.181Z,13.25
2017-09-15T01:23:31.176Z,13.41
2017-09-15T01:24:31.161Z,13.41
2017-09-15T01:25:31.136Z,13.48
2017-09-15T01:26:31.422Z,13.53
2017-09-15T01:27:31.393Z,13.47
2017-09-15T01:28:31.379Z,13.41
2017-09-15T01:29:31.363Z,13.31
2017-09-15T01:30:31.359Z,13.47
2017-09-15T01:31:31.330Z,13.31
2017-09-15T01:32:31.312Z,13.22
2017-09-15T01:33:31.003Z,13.31
2017-09-15T01:34:31.289Z,13.26
2017-09-15T01:35:31.261Z,13.28
2017-09-15T01:36:30.618Z,13.38
2017-09-15T01:37:31.219Z,13.4
2017-09-15T01:38:31.209Z,13.29
2017-09-15T01:39:30.855Z,13.29
2017-09-15T01:40:31.166Z,13.38
2017-09-15T01:41:31.131Z,13.44
2017-09-15T01:42:31.126Z,13.31
2017-09-15T01:43:31.115Z,13.31
2017-09-15T01:44:31.096Z,13.26
2017-09-15T01:45:31.063Z,13.29
2017-09-15T01:46:31.041Z,13.42
2017-09-15T01:47:30.699Z,13.31
2017-09-15T01:48:30.686Z,13.22
2017-09-15T01:49:30.659Z,13.19
2017-09-15T01:50:30.644Z,13.21
2017-09-15T01:51:30.337Z,13.14
2017-09-15T01:52:30.624Z,13.01
2017-09-15T01:53:30.922Z,13.14
2017-09-15T01:54:30.566Z,13.26
2017-09-15T01:55:30.290Z,13.21
2017-09-15T01:56:30.541Z,13.31
2017-09-15T01:57:30.828Z,13.22
2017-09-15T01:58:30.799Z,13.21
2017-09-15T01:59:30.478Z,13.22
2017-09-15T02:00:30.778Z,13.21
2017-09-15T02:01:30.747Z,13.22
2017-09-15T02:02:30.718Z,13.19
2017-09-15T02:03:30.699Z,13.21
2017-09-15T02:04:30.689Z,13.19
2017-09-15T02:05:30.663Z,13.35
2017-09-15T02:06:30.686Z,13.22
2017-09-15T02:07:30.636Z,13.14
2017-09-15T02:08:30.609Z,13.19
2017-09-15T02:09:30.584Z,13.08
2017-09-15T02:10:30.251Z,13
2017-09-15T02:11:30.240Z,13.11
2017-09-15T02:12:30.221Z,13.08
2017-09-15T02:13:30.505Z,12.96
2017-09-15T02:14:29.869Z,12.92
2017-09-15T02:15:30.168Z,13
2017-09-15T02:16:30.468Z,13.04
2017-09-15T02:17:30.118Z,13.06
2017-09-15T02:18:30.109Z,13.03
2017-09-15T02:19:29.770Z,13
2017-09-15T02:20:30.069Z,13.07
2017-09-15T02:21:30.049Z,13.06
2017-09-15T02:22:30.338Z,13.04
2017-09-15T02:23:30.001Z,13.22
2017-09-15T02:24:29.982Z,13.11
2017-09-15T02:25:29.660Z,13.23
2017-09-15T02:26:30.271Z,13.15
2017-09-15T02:27:29.922Z,13.03
2017-09-15T02:28:29.909Z,12.92
2017-09-15T02:29:30.200Z,12.96
2017-09-15T02:30:29.870Z,13
2017-09-15T02:31:30.193Z,13.07
2017-09-15T02:32:30.143Z,13.01
2017-09-15T02:33:30.138Z,13.07
2017-09-15T02:34:29.801Z,13.11
2017-09-15T02:35:30.060Z,13.1
2017-09-15T02:36:30.058Z,12.97
2017-09-15T02:37:29.738Z,13.1
2017-09-15T02:38:29.718Z,13.07
2017-09-15T02:39:30.030Z,13.07
2017-09-15T02:40:29.989Z,13.16
2017-09-15T02:41:29.669Z,13.14
2017-09-15T02:42:29.949Z,13.15
2017-09-15T02:43:29.615Z,13.25
2017-09-15T02:44:29.918Z,13.22
2017-09-15T02:45:29.588Z,13.07
2017-09-15T02:46:29.860Z,13.1
2017-09-15T02:47:29.850Z,13.14
2017-09-15T02:48:29.829Z,13.11
2017-09-15T02:49:29.808Z,13.19
2017-09-15T02:50:29.802Z,13.21
2017-09-15T02:51:29.457Z,13.21
2017-09-15T02:52:29.128Z,13.19
2017-09-15T02:53:29.737Z,13.21
2017-09-15T02:54:29.717Z,13.14
2017-09-15T02:55:29.441Z,13.08
2017-09-15T02:56:29.682Z,13.16
2017-09-15T02:57:29.679Z,13.11
2017-09-15T02:58:29.637Z,13.21
2017-09-15T02:59:29.307Z,13.11
2017-09-15T03:00:29.597Z,13.06
2017-09-15T03:01:29.264Z,13.14
2017-09-15T03:02:28.929Z,13.18
2017-09-15T03:03:29.237Z,13.19
2017-09-15T03:04:29.198Z,13.14
2017-09-15T03:05:29.219Z,13.21
2017-09-15T03:06:29.479Z,13.16
2017-09-15T03:07:29.471Z,13.19
2017-09-15T03:08:28.830Z,13.1
2017-09-15T03:09:29.439Z,13.15
2017-09-15T03:10:29.098Z,13.19
2017-09-15T03:11:28.761Z,13.1
2017-09-15T03:12:29.060Z,13.01
2017-09-15T03:13:29.339Z,13.07
2017-09-15T03:14:29.016Z,13.16
2017-09-15T03:15:29.299Z,13.06
2017-09-15T03:16:28.979Z,13.14
2017-09-15T03:17:28.959Z,13.08
2017-09-15T03:18:29.259Z,13.11
2017-09-15T03:19:28.919Z,13.03
2017-09-15T03:20:28.900Z,13.11
2017-09-15T03:21:28.882Z,13.03
2017-09-15T03:22:29.177Z,13.18
2017-09-15T03:23:28.846Z,13.18
2017-09-15T03:24:29.151Z,13.15
2017-09-15T03:25:29.110Z,13.16
2017-09-15T03:26:29.090Z,13.04
2017-09-15T03:27:28.767Z,13.08
2017-09-15T03:28:28.752Z,12.98
2017-09-15T03:29:29.038Z,12.98
2017-09-15T03:30:29.030Z,12.96
2017-09-15T03:31:29.059Z,12.97
2017-09-15T03:32:28.659Z,12.96
2017-09-15T03:33:28.649Z,12.89
2017-09-15T03:34:28.926Z,12.97
2017-09-15T03:35:28.937Z,12.85
2017-09-15T03:36:28.587Z,12.86
2017-09-15T03:37:28.899Z,12.89
2017-09-15T03:38:28.548Z,12.89
2017-09-15T03:39:28.839Z,12.96
2017-09-15T03:40:28.830Z,13.01
2017-09-15T03:41:28.800Z,12.98
2017-09-15T03:42:28.791Z,12.96
2017-09-15T03:43:28.761Z,12.98
2017-09-15T03:44:28.780Z,12.85
2017-09-15T03:45:28.737Z,12.71
2017-09-15T03:46:28.710Z,12.74
2017-09-15T03:47:28.681Z,12.82
2017-09-15T03:48:28.678Z,12.79
2017-09-15T03:49:28.650Z,12.96
2017-09-15T03:50:28.310Z,12.98
2017-09-15T03:51:28.299Z,12.88
2017-09-15T03:52:28.601Z,12.94
2017-09-15T03:53:28.253Z,12.78
2017-09-15T03:54:28.240Z,12.89
2017-09-15T03:55:28.209Z,12.98
2017-09-15T03:56:28.240Z,13.01
2017-09-15T03:57:28.497Z,13.01
2017-09-15T03:58:28.461Z,12.86
2017-09-15T03:59:28.450Z,12.81
2017-09-15T04:00:28.119Z,12.71
2017-09-15T04:01:28.103Z,12.79
2017-09-15T04:02:28.389Z,12.83
2017-09-15T04:03:28.360Z,12.79
2017-09-15T04:04:28.356Z,12.83
2017-09-15T04:05:28.330Z,12.65
2017-09-15T04:06:28.310Z,12.71
2017-09-15T04:07:28.284Z,12.76
2017-09-15T04:08:28.280Z,12.73
2017-09-15T04:09:27.937Z,12.88
2017-09-15T04:10:27.611Z,12.86
2017-09-15T04:11:27.900Z,12.94
2017-09-15T04:12:28.210Z,12.96
2017-09-15T04:13:27.869Z,12.85
2017-09-15T04:14:27.839Z,12.9
2017-09-15T04:15:28.157Z,12.9
2017-09-15T04:16:27.795Z,12.98
2017-09-15T04:17:27.479Z,12.85
2017-09-15T04:18:27.449Z,12.74
2017-09-15T04:19:27.435Z,12.71
2017-09-15T04:20:27.729Z,12.71
2017-09-15T04:21:27.711Z,12.58
2017-09-15T04:22:27.681Z,12.61
2017-09-15T04:23:27.410Z,12.57
2017-09-15T04:24:27.648Z,12.65
2017-09-15T04:25:27.949Z,12.7
2017-09-15T04:26:27.611Z,12.74
2017-09-15T04:27:27.597Z,12.74
2017-09-15T04:28:27.563Z,12.71
2017-09-15T04:29:27.855Z,12.76
2017-09-15T04:30:27.531Z,12.53
2017-09-15T04:31:27.820Z,12.57
2017-09-15T04:32:27.488Z,12.61
2017-09-15T04:33:27.782Z,12.64
2017-09-15T04:34:27.761Z,12.65
2017-09-15T04:35:27.749Z,12.7
2017-09-15T04:36:27.727Z,12.58
2017-09-15T04:37:27.698Z,12.52
2017-09-15T04:38:27.380Z,12.5
2017-09-15T04:39:27.359Z,12.55
2017-09-15T04:40:27.329Z,12.48
2017-09-15T04:41:27.659Z,12.49
2017-09-15T04:42:27.301Z,12.55
2017-09-15T04:43:27.259Z,12.53
2017-09-15T04:44:27.557Z,12.57
2017-09-15T04:45:27.590Z,12.58
2017-09-15T04:46:27.219Z,12.57
2017-09-15T04:47:27.189Z,12.7
2017-09-15T04:48:27.199Z,12.68
2017-09-15T04:49:27.483Z,12.64
2017-09-15T04:50:27.460Z,12.71
2017-09-15T04:51:26.809Z,12.74
2017-09-15T04:52:27.441Z,12.67
2017-09-15T04:53:27.400Z,12.53
2017-09-15T04:54:27.368Z,12.58
2017-09-15T04:55:26.773Z,12.61
2017-09-15T04:56:26.709Z,12.64
2017-09-15T04:57:27.355Z,12.67
2017-09-15T04:58:26.989Z,12.71
2017-09-15T04:59:27.282Z,12.67
2017-09-15T05:00:26.950Z,12.68
2017-09-15T05:01:26.922Z,12.63
2017-09-15T05:02:26.899Z,12.61
2017-09-15T05:03:27.201Z,12.65
2017-09-15T05:04:27.170Z,12.63
2017-09-15T05:05:26.531Z,12.5
2017-09-15T05:06:27.143Z,12.64
2017-09-15T05:07:27.148Z,12.68
2017-09-15T05:08:26.778Z,12.61
2017-09-15T05:09:26.450Z,12.58
2017-09-15T05:10:27.111Z,12.55
2017-09-15T05:11:26.719Z,12.5
2017-09-15T05:12:26.712Z,12.55
2017-09-15T05:13:27.020Z,12.57
2017-09-15T05:14:26.664Z,12.53
2017-09-15T05:15:26.960Z,12.63
2017-09-15T05:16:26.320Z,12.34
2017-09-15T05:17:26.619Z,12.34
2017-09-15T05:18:26.899Z,12.42
2017-09-15T05:19:26.586Z,12.5
2017-09-15T05:20:26.870Z,12.37
2017-09-15T05:21:26.879Z,12.43
2017-09-15T05:22:26.825Z,12.45
2017-09-15T05:23:26.497Z,12.43
2017-09-15T05:24:26.779Z,12.49
2017-09-15T05:25:26.141Z,12.64
2017-09-15T05:26:26.748Z,12.61
2017-09-15T05:27:26.419Z,12.58
2017-09-15T05:28:26.400Z,12.58
2017-09-15T05:29:26.057Z,12.67
2017-09-15T05:30:26.352Z,12.6
2017-09-15T05:31:26.656Z,12.68
2017-09-15T05:32:26.320Z,12.68
2017-09-15T05:33:26.591Z,12.65
2017-09-15T05:34:26.608Z,12.61
2017-09-15T05:35:26.273Z,12.74
2017-09-15T05:36:26.541Z,12.79
2017-09-15T05:37:26.521Z,12.7
2017-09-15T05:38:26.495Z,12.65
2017-09-15T05:39:26.479Z,12.73
2017-09-15T05:40:26.461Z,12.7
2017-09-15T05:41:26.450Z,12.81
2017-09-15T05:42:26.440Z,12.81
2017-09-15T05:43:26.119Z,12.68
2017-09-15T05:44:26.390Z,12.64
2017-09-15T05:45:25.742Z,12.46
2017-09-15T05:46:26.388Z,12.37
2017-09-15T05:47:26.333Z,12.32
2017-09-15T05:48:26.009Z,12.49
2017-09-15T05:49:26.292Z,12.55
2017-09-15T05:50:26.291Z,12.64
2017-09-15T05:51:26.263Z,12.61
2017-09-15T05:52:25.958Z,12.67
2017-09-15T05:53:26.216Z,12.71
2017-09-15T05:54:26.271Z,12.55
2017-09-15T05:55:26.167Z,12.49
2017-09-15T05:56:25.844Z,12.6
2017-09-15T05:57:25.820Z,12.34
2017-09-15T05:58:26.132Z,12.45
2017-09-15T05:59:25.769Z,12.48
2017-09-15T06:00:25.761Z,12.49
2017-09-15T06:01:26.064Z,12.45
2017-09-15T06:02:25.719Z,12.4
2017-09-15T06:03:26.019Z,12.42
2017-09-15T06:04:25.358Z,12.39
2017-09-15T06:05:25.996Z,12.23
2017-09-15T06:06:25.709Z,12.27
2017-09-15T06:07:25.950Z,12.17
2017-09-15T06:08:25.599Z,12.35
2017-09-15T06:09:25.920Z,12.3
2017-09-15T06:10:25.876Z,12.4
2017-09-15T06:11:25.861Z,12.42
2017-09-15T06:12:25.950Z,12.49
2017-09-15T06:13:25.491Z,12.61
2017-09-15T06:14:25.501Z,12.64
2017-09-15T06:15:25.450Z,12.7
2017-09-15T06:16:25.809Z,12.7
2017-09-15T06:17:25.858Z,12.46
2017-09-15T06:18:25.400Z,12.35
2017-09-15T06:19:25.389Z,12.31
2017-09-15T06:20:25.692Z,12.46
2017-09-15T06:21:25.349Z,12.58
2017-09-15T06:22:25.326Z,12.68
2017-09-15T06:23:25.319Z,12.83
2017-09-15T06:24:25.288Z,12.96
2017-09-15T06:25:25.262Z,13.01
2017-09-15T06:26:25.559Z,13.14
2017-09-15T06:27:25.224Z,13.29
2017-09-15T06:28:25.512Z,13.21
2017-09-15T06:29:25.191Z,13.07
2017-09-15T06:30:25.162Z,13.11
2017-09-15T06:31:25.153Z,13.25
2017-09-15T06:32:25.130Z,13.29
2017-09-15T06:33:24.810Z,13.42
2017-09-15T06:34:25.408Z,13.26
2017-09-15T06:35:25.388Z,13.41
2017-09-15T06:36:25.373Z,13.37
2017-09-15T06:37:25.363Z,13.11
2017-09-15T06:38:25.374Z,13.15
2017-09-15T06:39:24.691Z,13.19
2017-09-15T06:40:24.970Z,13.23
2017-09-15T06:41:24.970Z,13.1
2017-09-15T06:42:24.960Z,13
2017-09-15T06:43:25.239Z,12.82
2017-09-15T06:44:24.909Z,12.82
2017-09-15T06:45:24.890Z,12.82
2017-09-15T06:46:24.893Z,12.94
2017-09-15T06:47:24.959Z,13.14
2017-09-15T06:48:24.847Z,13.15
2017-09-15T06:49:25.141Z,13.07
2017-09-15T06:50:25.122Z,13
2017-09-15T06:51:25.084Z,12.82
2017-09-15T06:52:24.439Z,12.98
2017-09-15T06:53:24.739Z,13.06
2017-09-15T06:54:24.409Z,13.11
2017-09-15T06:55:25.012Z,13.19
2017-09-15T06:56:24.665Z,13.23
2017-09-15T06:57:24.981Z,13.26
2017-09-15T06:58:24.950Z,13.35
2017-09-15T06:59:24.943Z,13.4
2017-09-15T07:00:24.990Z,13.23
2017-09-15T07:01:24.890Z,13.22
2017-09-15T07:02:24.911Z,13.18
2017-09-15T07:03:24.229Z,13.35
2017-09-15T07:04:24.219Z,13.19
2017-09-15T07:05:24.199Z,13.21
2017-09-15T07:06:24.180Z,13.26
2017-09-15T07:07:24.469Z,13.25
2017-09-15T07:08:24.450Z,13.31
2017-09-15T07:09:24.742Z,13.33
2017-09-15T07:10:24.406Z,13.33
2017-09-15T07:11:24.725Z,13.33
2017-09-15T07:12:24.700Z,13.22
2017-09-15T07:13:24.052Z,13.35
2017-09-15T07:14:24.331Z,13.52
2017-09-15T07:15:24.317Z,13.56
2017-09-15T07:16:24.342Z,13.44
2017-09-15T07:17:24.386Z,13.18
2017-09-15T07:18:24.260Z,13.03
2017-09-15T07:19:24.554Z,12.98
2017-09-15T07:20:24.221Z,12.97
2017-09-15T07:21:24.529Z,13.11
2017-09-15T07:22:24.184Z,13.1
2017-09-15T07:23:24.482Z,13.35
2017-09-15T07:24:24.152Z,13.41
2017-09-15T07:25:24.141Z,13.29
2017-09-15T07:26:24.410Z,13.11
2017-09-15T07:27:24.419Z,13.07
2017-09-15T07:28:24.074Z,12.98
2017-09-15T07:29:24.348Z,13.19
2017-09-15T07:30:24.041Z,13.33
2017-09-15T07:31:24.022Z,13.38
2017-09-15T07:32:24.296Z,13.48
2017-09-15T07:33:24.284Z,13.26
2017-09-15T07:34:24.270Z,13.35
2017-09-15T07:35:24.239Z,13.31
2017-09-15T07:36:23.921Z,13.37
2017-09-15T07:37:24.211Z,13.21
2017-09-15T07:38:24.211Z,13.38
2017-09-15T07:39:24.170Z,13.47
2017-09-15T07:40:23.854Z,13.63
2017-09-15T07:41:24.160Z,13.77
2017-09-15T07:42:24.108Z,13.82
2017-09-15T07:43:24.124Z,13.65
2017-09-15T07:44:24.077Z,13.72
2017-09-15T07:45:24.061Z,13.67
2017-09-15T07:46:24.034Z,13.78
2017-09-15T07:47:24.038Z,13.62
2017-09-15T07:48:23.700Z,13.81
2017-09-15T07:49:23.991Z,13.77
2017-09-15T07:50:23.990Z,13.49
2017-09-15T07:51:24.001Z,13.31
2017-09-15T07:52:23.309Z,13.15
2017-09-15T07:53:23.921Z,13.25
2017-09-15T07:54:23.885Z,13.08
2017-09-15T07:55:23.872Z,13.22
2017-09-15T07:56:23.862Z,13.31
2017-09-15T07:57:23.893Z,13.44
2017-09-15T07:58:23.814Z,13.45
2017-09-15T07:59:23.794Z,13.41
2017-09-15T08:00:23.774Z,13.49
2017-09-15T08:01:23.450Z,13.67
2017-09-15T08:02:23.741Z,13.74
2017-09-15T08:03:23.802Z,13.67
2017-09-15T08:04:23.381Z,13.77
2017-09-15T08:05:23.690Z,13.66
2017-09-15T08:06:23.038Z,13.77
2017-09-15T08:07:23.367Z,13.65
2017-09-15T08:08:23.309Z,13.7
2017-09-15T08:09:23.602Z,13.66
2017-09-15T08:10:22.962Z,13.6
2017-09-15T08:11:23.000Z,13.55
2017-09-15T08:12:22.931Z,13.78
2017-09-15T08:13:23.531Z,13.84
2017-09-15T08:14:23.188Z,13.71
2017-09-15T08:15:23.503Z,13.72
2017-09-15T08:16:23.543Z,13.75
2017-09-15T08:17:23.458Z,13.72
2017-09-15T08:18:23.434Z,13.81
2017-09-15T08:19:23.096Z,13.88
2017-09-15T08:20:23.083Z,13.81
2017-09-15T08:21:23.401Z,13.82
2017-09-15T08:22:23.038Z,13.84
2017-09-15T08:23:23.393Z,13.78
2017-09-15T08:24:23.001Z,13.65
2017-09-15T08:25:22.990Z,13.75
2017-09-15T08:26:22.967Z,13.71
2017-09-15T08:27:23.279Z,13.78
2017-09-15T08:28:23.249Z,13.67
2017-09-15T08:29:22.904Z,13.82
2017-09-15T08:30:23.229Z,13.93
2017-09-15T08:31:23.183Z,13.81
2017-09-15T08:32:23.169Z,13.7
2017-09-15T08:33:23.161Z,13.8
2017-09-15T08:34:22.818Z,13.82
2017-09-15T08:35:23.122Z,13.89
2017-09-15T08:36:23.120Z,13.92
2017-09-15T08:37:22.772Z,13.84
2017-09-15T08:38:22.753Z,13.93
2017-09-15T08:39:22.751Z,13.92
2017-09-15T08:40:22.705Z,14.15
2017-09-15T08:41:22.700Z,14.18
2017-09-15T08:42:23.000Z,14.33
2017-09-15T08:43:22.963Z,14.3
2017-09-15T08:44:22.638Z,14.48
2017-09-15T08:45:22.921Z,14.5
2017-09-15T08:46:22.916Z,14.63
2017-09-15T08:47:22.898Z,14.47
2017-09-15T08:48:22.881Z,14.44
2017-09-15T08:49:22.871Z,14.58
2017-09-15T08:50:22.870Z,14.62
2017-09-15T08:51:22.522Z,14.53
2017-09-15T08:52:22.829Z,14.63
2017-09-15T08:53:22.793Z,14.89
2017-09-15T08:54:22.770Z,14.88
2017-09-15T08:55:22.759Z,14.58
2017-09-15T08:56:22.728Z,14.51
2017-09-15T08:57:22.722Z,14.48
2017-09-15T08:58:22.704Z,14.42
2017-09-15T08:59:22.052Z,14.33
2017-09-15T09:00:22.654Z,14.54
2017-09-15T09:01:22.642Z,14.48
2017-09-15T09:02:22.623Z,14.58
2017-09-15T09:03:22.290Z,14.58
2017-09-15T09:04:22.586Z,14.69
2017-09-15T09:05:22.589Z,14.84
2017-09-15T09:06:22.246Z,14.72
2017-09-15T09:07:22.221Z,14.54
2017-09-15T09:08:22.527Z,14.6
2017-09-15T09:09:22.191Z,14.44
2017-09-15T09:10:22.491Z,14.47
2017-09-15T09:11:22.154Z,14.46
2017-09-15T09:12:22.125Z,14.46
2017-09-15T09:13:22.099Z,14.54
2017-09-15T09:14:22.082Z,14.7
2017-09-15T09:15:22.079Z,14.88
2017-09-15T09:16:22.062Z,15
2017-09-15T09:17:22.038Z,14.82
2017-09-15T09:18:22.329Z,14.85
2017-09-15T09:19:22.013Z,14.89
2017-09-15T09:20:22.000Z,14.85
2017-09-15T09:21:22.293Z,14.95
2017-09-15T09:22:21.959Z,14.95
2017-09-15T09:23:22.250Z,15.06
2017-09-15T09:24:22.229Z,15.13
2017-09-15T09:25:22.219Z,14.98
2017-09-15T09:26:21.879Z,14.8
2017-09-15T09:27:22.205Z,14.84
2017-09-15T09:28:21.869Z,15.06
2017-09-15T09:29:21.829Z,15.09
2017-09-15T09:30:22.110Z,14.82
2017-09-15T09:31:21.900Z,14.69
2017-09-15T09:32:21.780Z,14.69
2017-09-15T09:33:21.812Z,14.6
2017-09-15T09:34:22.072Z,14.77
2017-09-15T09:35:22.030Z,14.85
2017-09-15T09:36:21.700Z,14.89
2017-09-15T09:37:21.692Z,15.09
2017-09-15T09:38:21.676Z,15.21
2017-09-15T09:39:21.959Z,15.37
2017-09-15T09:40:21.629Z,15.54
2017-09-15T09:41:21.925Z,15.61
2017-09-15T09:42:21.899Z,15.6
2017-09-15T09:43:21.583Z,15.76
2017-09-15T09:44:21.879Z,15.52
2017-09-15T09:45:21.871Z,15.75
2017-09-15T09:46:21.850Z,15.75
2017-09-15T09:47:21.829Z,15.85
2017-09-15T09:48:21.808Z,16.04
2017-09-15T09:49:21.791Z,15.86
2017-09-15T09:50:21.789Z,15.97
2017-09-15T09:51:21.760Z,16.13
2017-09-15T09:52:21.750Z,16.46
2017-09-15T09:53:21.764Z,16.68
2017-09-15T09:54:21.711Z,16.76
2017-09-15T09:55:21.702Z,16.6
2017-09-15T09:56:21.394Z,16.08
2017-09-15T09:57:21.366Z,15.79
2017-09-15T09:58:21.650Z,15.72
2017-09-15T09:59:21.629Z,15.76
2017-09-15T10:00:21.643Z,15.94
2017-09-15T10:01:21.599Z,16.07
2017-09-15T10:02:21.582Z,16.05
2017-09-15T10:03:21.577Z,16.27
2017-09-15T10:04:21.561Z,16.48
2017-09-15T10:05:21.529Z,16.12
2017-09-15T10:06:21.471Z,15.97
2017-09-15T10:07:21.533Z,15.83
2017-09-15T10:08:21.502Z,16.02
2017-09-15T10:09:21.481Z,15.76
2017-09-15T10:10:21.470Z,15.65
2017-09-15T10:11:21.147Z,15.68
2017-09-15T10:12:21.128Z,15.72
2017-09-15T10:13:21.090Z,15.79
2017-09-15T10:14:21.088Z,15.64
2017-09-15T10:15:21.359Z,15.5
2017-09-15T10:16:21.111Z,15.47
2017-09-15T10:17:21.349Z,15.4
2017-09-15T10:18:20.699Z,15.22
2017-09-15T10:19:21.316Z,15.43
2017-09-15T10:20:21.292Z,15.54
2017-09-15T10:21:21.283Z,15.76
2017-09-15T10:22:20.997Z,16.12
2017-09-15T10:23:21.228Z,16.31
2017-09-15T10:24:21.229Z,16.38
2017-09-15T10:25:21.209Z,16.23
2017-09-15T10:26:21.198Z,16.31
2017-09-15T10:27:21.195Z,16.17
2017-09-15T10:28:21.161Z,16.48
2017-09-15T10:29:21.140Z,16.74
2017-09-15T10:30:21.120Z,16.74
2017-09-15T10:31:21.100Z,17.11
2017-09-15T10:32:21.089Z,17.27
2017-09-15T10:33:21.072Z,17.16
2017-09-15T10:34:20.749Z,17.6
2017-09-15T10:35:21.065Z,18.18
2017-09-15T10:36:20.722Z,18.82
2017-09-15T10:37:21.027Z,19.46
2017-09-15T10:38:21.015Z,19.93
2017-09-15T10:39:20.986Z,20.25
2017-09-15T10:40:20.969Z,20.23
2017-09-15T10:41:20.330Z,20.26
2017-09-15T10:42:20.940Z,19.55
2017-09-15T10:43:20.920Z,19.02
2017-09-15T10:44:20.601Z,18.69
2017-09-15T10:45:20.900Z,18.1
2017-09-15T10:46:20.592Z,18.26
2017-09-15T10:47:20.882Z,18.75
2017-09-15T10:48:20.540Z,19.16
2017-09-15T10:49:20.541Z,19.08
2017-09-15T10:50:20.829Z,19.4
2017-09-15T10:51:20.507Z,19.38
2017-09-15T10:52:20.810Z,19.22
2017-09-15T10:53:20.805Z,19.22
2017-09-15T10:54:20.778Z,19.48
2017-09-15T10:55:20.462Z,19.83
2017-09-15T10:56:20.752Z,19.55
2017-09-15T10:57:20.751Z,20.13
2017-09-15T10:58:20.423Z,19.78
2017-09-15T10:59:20.405Z,19.63
2017-09-15T11:00:20.701Z,20.11
2017-09-15T11:01:20.477Z,19.71
2017-09-15T11:02:20.359Z,19.44
2017-09-15T11:03:20.701Z,19.41
2017-09-15T11:04:20.341Z,19.18
2017-09-15T11:05:20.369Z,18.9
2017-09-15T11:06:20.619Z,19.41
2017-09-15T11:07:20.618Z,19.78
2017-09-15T11:08:20.287Z,19.95
2017-09-15T11:09:20.598Z,19.86
2017-09-15T11:10:20.555Z,19.56
2017-09-15T11:11:20.564Z,19.37
2017-09-15T11:12:20.557Z,19.06
2017-09-15T11:13:20.215Z,19.04
2017-09-15T11:14:20.516Z,18.4
2017-09-15T11:15:20.498Z,17.46
2017-09-15T11:16:20.170Z,16.94
2017-09-15T11:17:20.158Z,16.79
2017-09-15T11:18:20.149Z,16.85
2017-09-15T11:19:20.453Z,16.76
2017-09-15T11:20:20.428Z,16.35
2017-09-15T11:21:20.439Z,16.34
2017-09-15T11:22:20.398Z,16.58
2017-09-15T11:23:20.390Z,16.39
2017-09-15T11:24:20.373Z,16.17
2017-09-15T11:25:20.353Z,16.24
2017-09-15T11:26:20.320Z,16.17
2017-09-15T11:27:20.321Z,16.27
2017-09-15T11:28:20.309Z,16.46
2017-09-15T11:29:20.279Z,16.45
2017-09-15T11:30:20.303Z,16.57
2017-09-15T11:31:19.953Z,16.6
2017-09-15T11:32:20.236Z,16.43
2017-09-15T11:33:19.911Z,16.56
2017-09-15T11:34:19.920Z,16.34
2017-09-15T11:35:19.878Z,16.21
2017-09-15T11:36:19.549Z,16.01
2017-09-15T11:37:19.848Z,16.16
2017-09-15T11:38:19.848Z,16.16
2017-09-15T11:39:19.830Z,16.34
2017-09-15T11:40:19.801Z,16.23
2017-09-15T11:41:19.784Z,16.39
2017-09-15T11:42:20.083Z,16.45
2017-09-15T11:43:19.442Z,16.6
2017-09-15T11:44:19.728Z,16.79
2017-09-15T11:45:20.029Z,17.08
2017-09-15T11:46:20.030Z,17.29
2017-09-15T11:47:19.699Z,17.31
2017-09-15T11:48:19.686Z,17.75
2017-09-15T11:49:19.972Z,17.55
2017-09-15T11:50:19.628Z,17.75
2017-09-15T11:51:19.928Z,18
2017-09-15T11:52:19.919Z,18.25
2017-09-15T11:53:19.588Z,18.35
2017-09-15T11:54:19.881Z,18.65
2017-09-15T11:55:19.871Z,18.92
2017-09-15T11:56:19.642Z,19.07
2017-09-15T11:57:19.861Z,19.43
2017-09-15T11:58:19.821Z,18.96
2017-09-15T11:59:19.841Z,19.21
2017-09-15T12:00:19.250Z,19.52
2017-09-15T12:01:19.789Z,19.34
2017-09-15T12:02:19.450Z,19.16
2017-09-15T12:03:19.750Z,19.19
2017-09-15T12:04:19.738Z,19.19
2017-09-15T12:05:19.720Z,18.66
2017-09-15T12:06:19.398Z,18.15
2017-09-15T12:07:19.683Z,18.01
2017-09-15T12:08:19.351Z,17.67
2017-09-15T12:09:19.408Z,17.46
2017-09-15T12:10:19.343Z,17.64
2017-09-15T12:11:19.881Z,17.56
2017-09-15T12:12:19.622Z,17.4
2017-09-15T12:13:19.290Z,17.42
2017-09-15T12:14:19.295Z,17.44
2017-09-15T12:15:19.557Z,17.33
2017-09-15T12:16:19.261Z,17.44
2017-09-15T12:17:19.541Z,17.3
2017-09-15T12:18:19.220Z,17.58
2017-09-15T12:19:19.200Z,17.98
2017-09-15T12:20:19.494Z,18.29
2017-09-15T12:21:19.220Z,18.15
2017-09-15T12:22:19.460Z,17.98
2017-09-15T12:23:19.533Z,17.46
2017-09-15T12:24:19.427Z,17.21
2017-09-15T12:25:19.429Z,17.21
2017-09-15T12:26:19.094Z,17
2017-09-15T12:27:19.421Z,16.96
2017-09-15T12:28:19.402Z,17.03
2017-09-15T12:29:19.392Z,16.81
2017-09-15T12:30:19.435Z,16.85
2017-09-15T12:31:19.340Z,17.12
2017-09-15T12:32:19.301Z,17.14
2017-09-15T12:33:19.300Z,17.01
2017-09-15T12:34:19.272Z,17.05
2017-09-15T12:35:19.280Z,17.18
2017-09-15T12:36:19.451Z,17.21
2017-09-15T12:37:19.257Z,17.3
2017-09-15T12:38:19.245Z,17.4
2017-09-15T12:39:19.210Z,17.56
2017-09-15T12:40:19.261Z,17.34
2017-09-15T12:41:19.171Z,17.62
2017-09-15T12:42:19.170Z,17.98
2017-09-15T12:43:19.142Z,18.12
2017-09-15T12:44:19.143Z,17.82
2017-09-15T12:45:19.101Z,18.07
2017-09-15T12:46:19.102Z,18.27
2017-09-15T12:47:18.791Z,18.42
2017-09-15T12:48:19.075Z,18.51
2017-09-15T12:49:19.076Z,18.11
2017-09-15T12:50:19.040Z,18.12
2017-09-15T12:51:18.700Z,18.3
2017-09-15T12:52:19.018Z,18.62
2017-09-15T12:53:18.995Z,18.87
2017-09-15T12:54:18.973Z,18.92
2017-09-15T12:55:18.644Z,18.88